sensor_id;sensor_type;location;lat;lon;timestamp;pressure;altitude;pressure_sealevel;temperature;humidity
43298;BME280;28892;55.640;37.532;2023-04-22T00:02:07;98260.91;;;13.44;33.85
43298;BME280;28892;55.640;37.532;2023-04-22T00:04:33;98260.22;;;13.30;34.31
43298;BME280;28892;55.640;37.532;2023-04-22T00:07:00;98262.75;;;13.06;34.80
43298;BME280;28892;55.640;37.532;2023-04-22T00:09:28;98264.19;;;12.83;34.92
43298;BME280;28892;55.640;37.532;2023-04-22T00:11:54;98262.50;;;12.89;34.84
43298;BME280;28892;55.640;37.532;2023-04-22T00:14:20;98263.47;;;12.95;35.09
43298;BME280;28892;55.640;37.532;2023-04-22T00:16:46;98262.00;;;12.99;34.65
43298;BME280;28892;55.640;37.532;2023-04-22T00:19:12;98259.47;;;13.04;34.67
43298;BME280;28892;55.640;37.532;2023-04-22T00:21:37;98272.00;;;13.22;34.16
43298;BME280;28892;55.640;37.532;2023-04-22T00:24:03;98276.28;;;13.23;34.63
43298;BME280;28892;55.640;37.532;2023-04-22T00:26:29;98271.72;;;13.12;34.75
43298;BME280;28892;55.640;37.532;2023-04-22T00:28:56;98267.56;;;13.16;34.23
43298;BME280;28892;55.640;37.532;2023-04-22T00:31:21;98263.47;;;13.13;34.28
43298;BME280;28892;55.640;37.532;2023-04-22T00:33:47;98266.69;;;13.22;34.39
43298;BME280;28892;55.640;37.532;2023-04-22T00:36:13;98266.22;;;13.25;34.31
43298;BME280;28892;55.640;37.532;2023-04-22T00:38:42;98277.97;;;13.36;34.12
43298;BME280;28892;55.640;37.532;2023-04-22T00:41:12;98264.38;;;13.45;33.67
43298;BME280;28892;55.640;37.532;2023-04-22T00:43:38;98265.69;;;13.35;33.88
43298;BME280;28892;55.640;37.532;2023-04-22T00:46:05;98268.66;;;13.27;34.33
43298;BME280;28892;55.640;37.532;2023-04-22T00:48:31;98261.78;;;13.38;33.90
43298;BME280;28892;55.640;37.532;2023-04-22T00:50:57;98263.97;;;13.41;34.09
43298;BME280;28892;55.640;37.532;2023-04-22T00:53:22;98269.88;;;13.43;34.34
43298;BME280;28892;55.640;37.532;2023-04-22T00:55:48;98260.59;;;13.34;34.36
43298;BME280;28892;55.640;37.532;2023-04-22T00:58:15;98269.34;;;13.22;34.50
43298;BME280;28892;55.640;37.532;2023-04-22T01:00:42;98263.34;;;13.08;34.96
43298;BME280;28892;55.640;37.532;2023-04-22T01:03:08;98260.97;;;13.00;35.13
43298;BME280;28892;55.640;37.532;2023-04-22T01:05:34;98262.97;;;12.86;35.37
43298;BME280;28892;55.640;37.532;2023-04-22T01:08:01;98251.22;;;12.75;35.19
43298;BME280;28892;55.640;37.532;2023-04-22T01:10:26;98259.41;;;12.74;35.50
43298;BME280;28892;55.640;37.532;2023-04-22T01:12:52;98254.75;;;12.88;35.08
43298;BME280;28892;55.640;37.532;2023-04-22T01:15:18;98252.16;;;12.81;35.33
43298;BME280;28892;55.640;37.532;2023-04-22T01:17:44;98256.94;;;12.72;35.47
43298;BME280;28892;55.640;37.532;2023-04-22T01:20:10;98260.72;;;12.64;35.79
43298;BME280;28892;55.640;37.532;2023-04-22T01:22:41;98257.47;;;12.62;35.95
43298;BME280;28892;55.640;37.532;2023-04-22T01:25:08;98257.91;;;12.59;35.82
43298;BME280;28892;55.640;37.532;2023-04-22T01:27:34;98254.81;;;12.62;35.56
43298;BME280;28892;55.640;37.532;2023-04-22T01:30:01;98253.75;;;12.63;35.74
43298;BME280;28892;55.640;37.532;2023-04-22T01:32:30;98255.78;;;12.68;35.73
43298;BME280;28892;55.640;37.532;2023-04-22T01:34:57;98254.66;;;12.76;35.89
43298;BME280;28892;55.640;37.532;2023-04-22T01:37:27;98253.63;;;12.77;35.89
43298;BME280;28892;55.640;37.532;2023-04-22T01:39:54;98240.78;;;12.74;35.55
43298;BME280;28892;55.640;37.532;2023-04-22T01:42:25;98243.72;;;12.65;36.02
43298;BME280;28892;55.640;37.532;2023-04-22T01:44:51;98242.38;;;12.56;35.95
43298;BME280;28892;55.640;37.532;2023-04-22T01:47:17;98252.28;;;12.49;36.53
43298;BME280;28892;55.640;37.532;2023-04-22T01:49:43;98246.50;;;12.26;36.61
43298;BME280;28892;55.640;37.532;2023-04-22T01:52:11;98250.00;;;12.27;36.63
43298;BME280;28892;55.640;37.532;2023-04-22T01:54:37;98253.63;;;12.07;37.63
43298;BME280;28892;55.640;37.532;2023-04-22T01:57:07;98245.00;;;12.12;37.47
43298;BME280;28892;55.640;37.532;2023-04-22T01:59:35;98246.41;;;12.14;37.13
43298;BME280;28892;55.640;37.532;2023-04-22T02:02:00;98250.06;;;12.13;37.19
43298;BME280;28892;55.640;37.532;2023-04-22T02:04:26;98250.25;;;12.19;36.92
43298;BME280;28892;55.640;37.532;2023-04-22T02:06:52;98247.41;;;12.13;37.18
43298;BME280;28892;55.640;37.532;2023-04-22T02:09:18;98252.44;;;12.03;37.18
43298;BME280;28892;55.640;37.532;2023-04-22T02:11:43;98251.16;;;12.06;37.36
43298;BME280;28892;55.640;37.532;2023-04-22T02:14:09;98248.88;;;12.09;37.44
43298;BME280;28892;55.640;37.532;2023-04-22T02:16:35;98251.03;;;11.94;37.52
43298;BME280;28892;55.640;37.532;2023-04-22T02:19:01;98243.84;;;11.94;37.58
43298;BME280;28892;55.640;37.532;2023-04-22T02:21:30;98250.25;;;11.86;38.42
43298;BME280;28892;55.640;37.532;2023-04-22T02:23:57;98252.13;;;11.79;37.94
43298;BME280;28892;55.640;37.532;2023-04-22T02:26:23;98254.13;;;11.84;37.94
43298;BME280;28892;55.640;37.532;2023-04-22T02:28:51;98254.78;;;11.79;38.29
43298;BME280;28892;55.640;37.532;2023-04-22T02:31:17;98249.47;;;11.79;38.16
43298;BME280;28892;55.640;37.532;2023-04-22T02:33:43;98247.44;;;11.81;38.07
43298;BME280;28892;55.640;37.532;2023-04-22T02:36:09;98255.06;;;11.64;38.25
43298;BME280;28892;55.640;37.532;2023-04-22T02:38:36;98249.75;;;11.64;38.61
43298;BME280;28892;55.640;37.532;2023-04-22T02:41:02;98256.28;;;11.68;38.25
43298;BME280;28892;55.640;37.532;2023-04-22T02:43:29;98257.66;;;11.78;37.98
43298;BME280;28892;55.640;37.532;2023-04-22T02:45:55;98251.22;;;11.60;39.07
43298;BME280;28892;55.640;37.532;2023-04-22T02:48:21;98261.59;;;11.68;38.37
43298;BME280;28892;55.640;37.532;2023-04-22T02:50:48;98259.94;;;11.74;38.33
43298;BME280;28892;55.640;37.532;2023-04-22T02:53:14;98263.13;;;11.83;37.87
43298;BME280;28892;55.640;37.532;2023-04-22T02:55:40;98254.97;;;11.84;37.88
43298;BME280;28892;55.640;37.532;2023-04-22T02:58:08;98263.38;;;11.81;38.25
43298;BME280;28892;55.640;37.532;2023-04-22T03:00:35;98260.22;;;11.91;38.22
43298;BME280;28892;55.640;37.532;2023-04-22T03:03:00;98263.06;;;12.03;37.84
43298;BME280;28892;55.640;37.532;2023-04-22T03:05:32;98261.00;;;11.98;38.06
43298;BME280;28892;55.640;37.532;2023-04-22T03:07:59;98265.03;;;12.08;37.63
43298;BME280;28892;55.640;37.532;2023-04-22T03:10:26;98269.06;;;12.17;37.73
43298;BME280;28892;55.640;37.532;2023-04-22T03:12:52;98262.91;;;12.23;37.44
43298;BME280;28892;55.640;37.532;2023-04-22T03:15:19;98259.94;;;12.38;37.11
43298;BME280;28892;55.640;37.532;2023-04-22T03:17:45;98255.34;;;12.46;37.01
43298;BME280;28892;55.640;37.532;2023-04-22T03:20:13;98261.38;;;12.60;36.77
43298;BME280;28892;55.640;37.532;2023-04-22T03:22:40;98264.84;;;12.60;36.73
43298;BME280;28892;55.640;37.532;2023-04-22T03:25:09;98272.59;;;12.62;37.04
43298;BME280;28892;55.640;37.532;2023-04-22T03:27:35;98274.47;;;12.61;36.94
43298;BME280;28892;55.640;37.532;2023-04-22T03:30:01;98269.44;;;12.71;36.56
43298;BME280;28892;55.640;37.532;2023-04-22T03:32:31;98273.09;;;12.77;36.57
43298;BME280;28892;55.640;37.532;2023-04-22T03:35:12;98271.59;;;12.81;36.23
43298;BME280;28892;55.640;37.532;2023-04-22T03:37:37;98273.47;;;12.81;36.94
43298;BME280;28892;55.640;37.532;2023-04-22T03:40:06;98271.53;;;12.69;36.77
43298;BME280;28892;55.640;37.532;2023-04-22T03:42:32;98279.59;;;12.81;36.65
43298;BME280;28892;55.640;37.532;2023-04-22T03:44:58;98279.16;;;12.84;36.46
43298;BME280;28892;55.640;37.532;2023-04-22T03:47:30;98269.63;;;12.95;36.05
43298;BME280;28892;55.640;37.532;2023-04-22T03:50:03;98285.81;;;13.12;35.70
43298;BME280;28892;55.640;37.532;2023-04-22T03:52:31;98280.72;;;13.11;36.81
43298;BME280;28892;55.640;37.532;2023-04-22T03:55:00;98275.69;;;13.21;36.73
43298;BME280;28892;55.640;37.532;2023-04-22T03:57:26;98280.28;;;13.51;36.06
43298;BME280;28892;55.640;37.532;2023-04-22T03:59:52;98285.50;;;13.58;35.71
43298;BME280;28892;55.640;37.532;2023-04-22T04:02:19;98279.22;;;13.71;35.29
43298;BME280;28892;55.640;37.532;2023-04-22T04:04:45;98277.09;;;13.61;34.99
43298;BME280;28892;55.640;37.532;2023-04-22T04:07:11;98285.75;;;13.57;35.44
43298;BME280;28892;55.640;37.532;2023-04-22T04:09:36;98279.59;;;13.37;35.43
43298;BME280;28892;55.640;37.532;2023-04-22T04:12:02;98280.53;;;13.50;35.32
43298;BME280;28892;55.640;37.532;2023-04-22T04:14:33;98282.06;;;13.58;35.10
43298;BME280;28892;55.640;37.532;2023-04-22T04:17:00;98286.94;;;13.61;35.21
43298;BME280;28892;55.640;37.532;2023-04-22T04:19:29;98290.09;;;13.69;34.98
43298;BME280;28892;55.640;37.532;2023-04-22T04:21:55;98290.34;;;13.80;35.24
43298;BME280;28892;55.640;37.532;2023-04-22T04:24:22;98289.25;;;13.88;34.76
43298;BME280;28892;55.640;37.532;2023-04-22T04:26:51;98282.31;;;13.99;35.01
43298;BME280;28892;55.640;37.532;2023-04-22T04:29:20;98287.56;;;14.05;34.61
43298;BME280;28892;55.640;37.532;2023-04-22T04:32:06;98289.00;;;14.20;34.22
43298;BME280;28892;55.640;37.532;2023-04-22T04:34:33;98293.06;;;14.34;33.78
43298;BME280;28892;55.640;37.532;2023-04-22T04:37:00;98284.75;;;14.43;33.65
43298;BME280;28892;55.640;37.532;2023-04-22T04:39:35;98297.47;;;14.41;34.17
43298;BME280;28892;55.640;37.532;2023-04-22T04:42:03;98289.63;;;14.70;33.24
43298;BME280;28892;55.640;37.532;2023-04-22T04:44:32;98302.09;;;14.76;33.43
43298;BME280;28892;55.640;37.532;2023-04-22T04:47:03;98296.50;;;14.77;33.12
43298;BME280;28892;55.640;37.532;2023-04-22T04:49:30;98297.66;;;15.05;32.87
43298;BME280;28892;55.640;37.532;2023-04-22T04:51:58;98301.72;;;15.08;32.71
43298;BME280;28892;55.640;37.532;2023-04-22T04:54:26;98304.13;;;15.09;32.75
43298;BME280;28892;55.640;37.532;2023-04-22T04:56:53;98294.59;;;15.26;32.37
43298;BME280;28892;55.640;37.532;2023-04-22T04:59:19;98305.97;;;15.33;32.21
43298;BME280;28892;55.640;37.532;2023-04-22T05:01:46;98305.97;;;15.45;31.75
43298;BME280;28892;55.640;37.532;2023-04-22T05:04:12;98299.34;;;15.35;31.98
43298;BME280;28892;55.640;37.532;2023-04-22T05:06:41;98301.25;;;15.64;31.37
43298;BME280;28892;55.640;37.532;2023-04-22T05:09:07;98308.44;;;15.63;31.41
43298;BME280;28892;55.640;37.532;2023-04-22T05:11:34;98312.03;;;15.69;31.37
43298;BME280;28892;55.640;37.532;2023-04-22T05:14:04;98312.47;;;15.78;31.12
43298;BME280;28892;55.640;37.532;2023-04-22T05:16:35;98309.16;;;15.88;31.14
43298;BME280;28892;55.640;37.532;2023-04-22T05:19:02;98307.78;;;15.85;31.31
43298;BME280;28892;55.640;37.532;2023-04-22T05:21:28;98309.63;;;15.97;31.07
43298;BME280;28892;55.640;37.532;2023-04-22T05:23:54;98306.34;;;16.24;31.05
43298;BME280;28892;55.640;37.532;2023-04-22T05:26:19;98311.31;;;16.49;30.39
43298;BME280;28892;55.640;37.532;2023-04-22T05:28:48;98309.38;;;16.61;30.42
43298;BME280;28892;55.640;37.532;2023-04-22T05:31:15;98300.00;;;16.98;29.87
43298;BME280;28892;55.640;37.532;2023-04-22T05:33:41;98296.03;;;17.01;29.66
43298;BME280;28892;55.640;37.532;2023-04-22T05:36:08;98309.50;;;17.06;29.46
43298;BME280;28892;55.640;37.532;2023-04-22T05:38:34;98308.81;;;17.16;29.21
43298;BME280;28892;55.640;37.532;2023-04-22T05:41:05;98310.44;;;17.17;29.67
43298;BME280;28892;55.640;37.532;2023-04-22T05:43:32;98306.91;;;17.34;29.37
43298;BME280;28892;55.640;37.532;2023-04-22T05:46:06;98305.03;;;17.56;28.63
43298;BME280;28892;55.640;37.532;2023-04-22T05:48:35;98296.75;;;17.58;28.93
43298;BME280;28892;55.640;37.532;2023-04-22T05:51:05;98304.94;;;17.73;28.28
43298;BME280;28892;55.640;37.532;2023-04-22T05:53:32;98296.78;;;17.63;28.29
43298;BME280;28892;55.640;37.532;2023-04-22T05:55:59;98314.69;;;17.57;28.57
43298;BME280;28892;55.640;37.532;2023-04-22T05:58:26;98303.13;;;17.79;28.55
43298;BME280;28892;55.640;37.532;2023-04-22T06:00:53;98312.88;;;17.85;28.23
43298;BME280;28892;55.640;37.532;2023-04-22T06:03:38;98312.81;;;17.80;28.14
43298;BME280;28892;55.640;37.532;2023-04-22T06:06:12;98316.28;;;18.03;28.16
43298;BME280;28892;55.640;37.532;2023-04-22T06:08:49;98298.22;;;18.21;27.96
43298;BME280;28892;55.640;37.532;2023-04-22T06:11:15;98305.94;;;18.17;27.61
43298;BME280;28892;55.640;37.532;2023-04-22T06:13:43;98299.50;;;18.13;27.37
43298;BME280;28892;55.640;37.532;2023-04-22T06:16:09;98308.16;;;17.98;27.60
43298;BME280;28892;55.640;37.532;2023-04-22T06:18:35;98300.91;;;17.98;27.68
43298;BME280;28892;55.640;37.532;2023-04-22T06:21:02;98307.66;;;18.01;27.87
43298;BME280;28892;55.640;37.532;2023-04-22T06:23:29;98307.31;;;18.20;27.75
43298;BME280;28892;55.640;37.532;2023-04-22T06:25:55;98310.91;;;18.31;28.50
43298;BME280;28892;55.640;37.532;2023-04-22T06:28:26;98310.09;;;18.30;27.78
43298;BME280;28892;55.640;37.532;2023-04-22T06:30:55;98310.72;;;18.10;28.08
43298;BME280;28892;55.640;37.532;2023-04-22T06:33:20;98306.03;;;18.00;28.14
43298;BME280;28892;55.640;37.532;2023-04-22T06:35:46;98305.81;;;18.34;28.08
43298;BME280;28892;55.640;37.532;2023-04-22T06:38:12;98295.44;;;18.43;27.74
43298;BME280;28892;55.640;37.532;2023-04-22T06:40:50;98312.59;;;18.42;27.82
43298;BME280;28892;55.640;37.532;2023-04-22T06:43:26;98307.53;;;18.46;27.58
43298;BME280;28892;55.640;37.532;2023-04-22T06:46:08;98307.75;;;18.77;27.54
43298;BME280;28892;55.640;37.532;2023-04-22T06:48:40;98292.84;;;18.91;27.03
43298;BME280;28892;55.640;37.532;2023-04-22T06:51:25;98301.34;;;19.26;26.82
43298;BME280;28892;55.640;37.532;2023-04-22T06:53:51;98295.41;;;18.38;28.24
43298;BME280;28892;55.640;37.532;2023-04-22T06:56:18;98297.22;;;19.03;26.99
43298;BME280;28892;55.640;37.532;2023-04-22T06:58:44;98291.06;;;19.81;25.94
43298;BME280;28892;55.640;37.532;2023-04-22T07:01:10;98299.44;;;19.16;25.95
43298;BME280;28892;55.640;37.532;2023-04-22T07:03:38;98300.53;;;18.82;27.04
43298;BME280;28892;55.640;37.532;2023-04-22T07:06:10;98294.59;;;18.37;27.29
43298;BME280;28892;55.640;37.532;2023-04-22T07:08:40;98301.38;;;18.83;27.00
43298;BME280;28892;55.640;37.532;2023-04-22T07:11:08;98300.69;;;19.03;26.40
43298;BME280;28892;55.640;37.532;2023-04-22T07:13:52;98296.59;;;19.44;26.09
43298;BME280;28892;55.640;37.532;2023-04-22T07:16:19;98290.16;;;19.45;26.19
43298;BME280;28892;55.640;37.532;2023-04-22T07:18:47;98295.91;;;19.16;26.31
43298;BME280;28892;55.640;37.532;2023-04-22T07:21:13;98292.72;;;18.76;26.48
43298;BME280;28892;55.640;37.532;2023-04-22T07:23:39;98294.16;;;18.51;26.63
43298;BME280;28892;55.640;37.532;2023-04-22T07:26:13;98297.13;;;17.94;27.86
43298;BME280;28892;55.640;37.532;2023-04-22T07:28:39;98292.63;;;17.28;28.01
43298;BME280;28892;55.640;37.532;2023-04-22T07:31:04;98300.00;;;17.87;27.86
43298;BME280;28892;55.640;37.532;2023-04-22T07:33:33;98301.00;;;18.36;26.90
43298;BME280;28892;55.640;37.532;2023-04-22T07:35:59;98294.19;;;18.56;26.38
43298;BME280;28892;55.640;37.532;2023-04-22T07:38:25;98290.09;;;18.48;26.55
43298;BME280;28892;55.640;37.532;2023-04-22T07:40:51;98297.09;;;18.49;25.97
43298;BME280;28892;55.640;37.532;2023-04-22T07:43:17;98293.75;;;18.32;26.24
43298;BME280;28892;55.640;37.532;2023-04-22T07:45:43;98296.03;;;18.50;26.38
43298;BME280;28892;55.640;37.532;2023-04-22T07:48:12;98292.97;;;18.74;26.40
43298;BME280;28892;55.640;37.532;2023-04-22T07:50:40;98290.69;;;18.98;26.15
43298;BME280;28892;55.640;37.532;2023-04-22T07:53:06;98288.22;;;18.87;26.26
43298;BME280;28892;55.640;37.532;2023-04-22T07:55:36;98296.16;;;18.66;25.93
43298;BME280;28892;55.640;37.532;2023-04-22T07:58:02;98315.88;;;18.49;26.44
43298;BME280;28892;55.640;37.532;2023-04-22T08:00:34;98308.88;;;18.43;26.27
43298;BME280;28892;55.640;37.532;2023-04-22T08:03:01;98299.56;;;18.23;26.27
43298;BME280;28892;55.640;37.532;2023-04-22T08:05:30;98306.03;;;18.00;26.02
43298;BME280;28892;55.640;37.532;2023-04-22T08:07:56;98307.31;;;17.92;26.33
43298;BME280;28892;55.640;37.532;2023-04-22T08:10:22;98299.53;;;18.18;26.31
43298;BME280;28892;55.640;37.532;2023-04-22T08:12:51;98299.28;;;18.95;25.85
43298;BME280;28892;55.640;37.532;2023-04-22T08:15:17;98307.72;;;19.68;25.33
43298;BME280;28892;55.640;37.532;2023-04-22T08:17:43;98302.19;;;20.37;24.57
43298;BME280;28892;55.640;37.532;2023-04-22T08:20:09;98305.69;;;20.58;24.13
43298;BME280;28892;55.640;37.532;2023-04-22T08:22:35;98311.09;;;20.32;24.65
43298;BME280;28892;55.640;37.532;2023-04-22T08:25:05;98312.38;;;19.99;24.39
43298;BME280;28892;55.640;37.532;2023-04-22T08:27:31;98314.25;;;19.24;25.33
43298;BME280;28892;55.640;37.532;2023-04-22T08:29:57;98312.25;;;18.66;25.99
43298;BME280;28892;55.640;37.532;2023-04-22T08:32:23;98299.38;;;18.68;26.02
43298;BME280;28892;55.640;37.532;2023-04-22T08:35:10;98301.22;;;18.62;25.97
43298;BME280;28892;55.640;37.532;2023-04-22T08:37:42;98324.63;;;18.34;26.14
43298;BME280;28892;55.640;37.532;2023-04-22T08:40:15;98309.53;;;18.00;26.70
43298;BME280;28892;55.640;37.532;2023-04-22T08:42:43;98324.19;;;17.93;27.02
43298;BME280;28892;55.640;37.532;2023-04-22T08:45:14;98305.38;;;17.87;26.83
43298;BME280;28892;55.640;37.532;2023-04-22T08:47:44;98315.28;;;18.09;26.78
43298;BME280;28892;55.640;37.532;2023-04-22T08:50:12;98311.53;;;17.88;26.87
43298;BME280;28892;55.640;37.532;2023-04-22T08:53:11;98293.28;;;17.85;26.54
43298;BME280;28892;55.640;37.532;2023-04-22T08:55:48;98307.22;;;17.87;26.86
43298;BME280;28892;55.640;37.532;2023-04-22T08:58:15;98291.75;;;17.67;27.00
43298;BME280;28892;55.640;37.532;2023-04-22T09:00:44;98312.31;;;17.83;27.07
43298;BME280;28892;55.640;37.532;2023-04-22T09:03:10;98316.28;;;18.03;27.07
43298;BME280;28892;55.640;37.532;2023-04-22T09:05:39;98298.53;;;18.29;26.11
43298;BME280;28892;55.640;37.532;2023-04-22T09:08:07;98308.16;;;18.96;25.25
43298;BME280;28892;55.640;37.532;2023-04-22T09:10:36;98316.22;;;19.44;25.17
43298;BME280;28892;55.640;37.532;2023-04-22T09:13:07;98288.78;;;19.37;24.52
43298;BME280;28892;55.640;37.532;2023-04-22T09:15:36;98306.78;;;19.36;24.76
43298;BME280;28892;55.640;37.532;2023-04-22T09:18:42;98306.19;;;20.08;24.11
43298;BME280;28892;55.640;37.532;2023-04-22T09:21:11;98293.00;;;20.95;23.60
43298;BME280;28892;55.640;37.532;2023-04-22T09:23:48;98294.66;;;22.07;22.42
43298;BME280;28892;55.640;37.532;2023-04-22T09:26:17;98279.78;;;22.50;21.98
43298;BME280;28892;55.640;37.532;2023-04-22T09:28:51;98282.94;;;22.22;22.10
43298;BME280;28892;55.640;37.532;2023-04-22T09:31:21;98298.41;;;21.66;22.15
43298;BME280;28892;55.640;37.532;2023-04-22T09:33:58;98286.22;;;21.13;22.92
43298;BME280;28892;55.640;37.532;2023-04-22T09:36:29;98294.88;;;20.74;23.44
43298;BME280;28892;55.640;37.532;2023-04-22T09:39:02;98298.41;;;20.59;23.65
43298;BME280;28892;55.640;37.532;2023-04-22T09:41:39;98283.06;;;20.28;23.82
43298;BME280;28892;55.640;37.532;2023-04-22T09:44:16;98292.69;;;19.82;24.72
43298;BME280;28892;55.640;37.532;2023-04-22T09:46:53;98296.34;;;19.55;24.24
43298;BME280;28892;55.640;37.532;2023-04-22T09:49:20;98285.69;;;19.12;25.70
43298;BME280;28892;55.640;37.532;2023-04-22T09:51:46;98288.00;;;18.93;25.30
43298;BME280;28892;55.640;37.532;2023-04-22T09:54:12;98289.03;;;19.35;24.85
43298;BME280;28892;55.640;37.532;2023-04-22T09:56:45;98301.66;;;20.40;23.72
43298;BME280;28892;55.640;37.532;2023-04-22T09:59:35;98288.34;;;21.21;22.66
43298;BME280;28892;55.640;37.532;2023-04-22T10:02:01;98283.28;;;21.75;21.99
43298;BME280;28892;55.640;37.532;2023-04-22T10:06:58;98276.81;;;21.61;21.11
43298;BME280;28892;55.640;37.532;2023-04-22T10:09:27;98274.69;;;21.63;21.51
43298;BME280;28892;55.640;37.532;2023-04-22T10:11:54;98268.78;;;21.56;20.61
43298;BME280;28892;55.640;37.532;2023-04-22T10:14:24;98281.94;;;21.73;20.18
43298;BME280;28892;55.640;37.532;2023-04-22T10:16:58;98282.44;;;22.20;20.57
43298;BME280;28892;55.640;37.532;2023-04-22T10:19:26;98269.19;;;21.84;20.67
43298;BME280;28892;55.640;37.532;2023-04-22T10:21:57;98276.00;;;21.71;21.25
43298;BME280;28892;55.640;37.532;2023-04-22T10:24:26;98277.03;;;21.14;21.95
43298;BME280;28892;55.640;37.532;2023-04-22T10:26:57;98288.16;;;20.56;22.59
43298;BME280;28892;55.640;37.532;2023-04-22T10:29:25;98275.19;;;19.85;23.63
43298;BME280;28892;55.640;37.532;2023-04-22T10:35:05;98284.97;;;19.27;24.72
43298;BME280;28892;55.640;37.532;2023-04-22T10:37:29;98294.28;;;18.34;25.82
43298;BME280;28892;55.640;37.532;2023-04-22T10:42:40;98284.25;;;18.19;26.23
43298;BME280;28892;55.640;37.532;2023-04-22T10:45:11;98277.16;;;18.07;26.61
43298;BME280;28892;55.640;37.532;2023-04-22T10:47:38;98289.78;;;17.84;26.85
43298;BME280;28892;55.640;37.532;2023-04-22T10:50:25;98278.91;;;18.62;25.69
43298;BME280;28892;55.640;37.532;2023-04-22T10:53:35;98287.97;;;19.36;25.83
43298;BME280;28892;55.640;37.532;2023-04-22T10:56:15;98277.94;;;20.47;24.57
43298;BME280;28892;55.640;37.532;2023-04-22T10:58:45;98276.97;;;21.35;22.62
43298;BME280;28892;55.640;37.532;2023-04-22T11:01:15;98269.72;;;22.21;21.67
43298;BME280;28892;55.640;37.532;2023-04-22T11:03:41;98273.00;;;22.82;20.26
43298;BME280;28892;55.640;37.532;2023-04-22T11:06:27;98269.72;;;23.34;20.10
43298;BME280;28892;55.640;37.532;2023-04-22T11:09:10;98279.47;;;23.73;19.60
43298;BME280;28892;55.640;37.532;2023-04-22T11:11:42;98261.72;;;23.67;19.31
43298;BME280;28892;55.640;37.532;2023-04-22T11:14:14;98259.78;;;23.29;19.97
43298;BME280;28892;55.640;37.532;2023-04-22T11:16:50;98270.75;;;23.38;20.20
43298;BME280;28892;55.640;37.532;2023-04-22T11:19:16;98266.63;;;22.97;20.12
43298;BME280;28892;55.640;37.532;2023-04-22T11:21:53;98274.44;;;22.04;20.59
43298;BME280;28892;55.640;37.532;2023-04-22T11:24:30;98273.59;;;21.59;21.25
43298;BME280;28892;55.640;37.532;2023-04-22T11:27:17;98272.16;;;21.16;22.27
43298;BME280;28892;55.640;37.532;2023-04-22T11:32:27;98262.84;;;20.67;22.97
43298;BME280;28892;55.640;37.532;2023-04-22T11:38:06;98272.03;;;20.24;23.33
43298;BME280;28892;55.640;37.532;2023-04-22T11:40:41;98269.22;;;21.13;22.66
43298;BME280;28892;55.640;37.532;2023-04-22T11:43:08;98278.28;;;21.93;21.21
43298;BME280;28892;55.640;37.532;2023-04-22T11:45:38;98264.38;;;22.45;20.76
43298;BME280;28892;55.640;37.532;2023-04-22T11:48:06;98276.44;;;22.87;19.91
43298;BME280;28892;55.640;37.532;2023-04-22T11:50:38;98280.56;;;22.15;21.16
43298;BME280;28892;55.640;37.532;2023-04-22T11:56:48;98265.00;;;22.37;19.92
43298;BME280;28892;55.640;37.532;2023-04-22T11:59:14;98259.69;;;21.91;19.80
43298;BME280;28892;55.640;37.532;2023-04-22T12:01:46;98249.78;;;22.51;19.38
43298;BME280;28892;55.640;37.532;2023-04-22T12:04:20;98247.50;;;22.64;19.79
43298;BME280;28892;55.640;37.532;2023-04-22T12:07:15;98248.88;;;23.34;19.78
43298;BME280;28892;55.640;37.532;2023-04-22T12:09:55;98243.41;;;23.39;19.09
43298;BME280;28892;55.640;37.532;2023-04-22T12:12:27;98258.34;;;23.56;18.95
43298;BME280;28892;55.640;37.532;2023-04-22T12:14:53;98247.13;;;23.43;19.37
43298;BME280;28892;55.640;37.532;2023-04-22T12:17:23;98248.09;;;22.26;20.09
43298;BME280;28892;55.640;37.532;2023-04-22T12:23:14;98246.28;;;21.15;21.61
43298;BME280;28892;55.640;37.532;2023-04-22T12:25:41;98247.47;;;20.83;21.48
43298;BME280;28892;55.640;37.532;2023-04-22T12:28:10;98249.91;;;20.85;21.34
43298;BME280;28892;55.640;37.532;2023-04-22T12:30:36;98245.97;;;21.27;21.28
43298;BME280;28892;55.640;37.532;2023-04-22T12:33:02;98243.75;;;21.40;20.70
43298;BME280;28892;55.640;37.532;2023-04-22T12:35:28;98243.09;;;21.63;20.43
43298;BME280;28892;55.640;37.532;2023-04-22T12:37:54;98248.38;;;21.84;20.18
43298;BME280;28892;55.640;37.532;2023-04-22T12:40:20;98242.38;;;21.47;20.73
43298;BME280;28892;55.640;37.532;2023-04-22T12:42:46;98252.53;;;21.05;21.00
43298;BME280;28892;55.640;37.532;2023-04-22T12:45:15;98244.47;;;20.79;21.13
43298;BME280;28892;55.640;37.532;2023-04-22T12:47:41;98248.88;;;20.39;21.51
43298;BME280;28892;55.640;37.532;2023-04-22T12:50:10;98236.22;;;20.14;22.05
43298;BME280;28892;55.640;37.532;2023-04-22T12:52:46;98244.00;;;20.26;21.80
43298;BME280;28892;55.640;37.532;2023-04-22T12:55:12;98236.50;;;20.17;21.62
43298;BME280;28892;55.640;37.532;2023-04-22T12:57:38;98240.28;;;20.16;21.68
43298;BME280;28892;55.640;37.532;2023-04-22T13:00:08;98240.25;;;20.11;22.33
43298;BME280;28892;55.640;37.532;2023-04-22T13:02:55;98238.66;;;19.94;22.10
43298;BME280;28892;55.640;37.532;2023-04-22T13:05:22;98233.75;;;19.91;22.23
43298;BME280;28892;55.640;37.532;2023-04-22T13:08:01;98237.19;;;19.50;22.79
43298;BME280;28892;55.640;37.532;2023-04-22T13:10:27;98248.22;;;19.59;22.89
43298;BME280;28892;55.640;37.532;2023-04-22T13:12:57;98245.25;;;19.50;23.16
43298;BME280;28892;55.640;37.532;2023-04-22T13:15:46;98233.69;;;19.60;23.54
43298;BME280;28892;55.640;37.532;2023-04-22T13:18:44;98236.97;;;19.83;22.19
43298;BME280;28892;55.640;37.532;2023-04-22T13:21:42;98250.16;;;19.74;22.70
43298;BME280;28892;55.640;37.532;2023-04-22T13:24:18;98239.09;;;19.60;22.58